Time;durP1;ratioP1;P1;durP2;ratioP2;P2;SDS_P1;SDS_P2;PMS_P1;PMS_P2;Temp;Humidity;BMP_temperature;BMP_pressure;BME280_temperature;BME280_humidity;BME280_pressure;Samples;Min_cycle;Max_cycle;Signal;HPM_P1;HPM_P2
2023/12/16 00:00:08;;;;;;;;;;;6.50;99.90;;;;;;5065449;28;19924;-92
2023/12/16 00:02:34;;;;;;;;;;;6.40;99.90;;;;;;5062937;28;19924;-90
2023/12/16 00:04:59;;;;;;;;;;;6.50;99.90;;;;;;5101706;28;19980;-92
2023/12/16 00:07:33;;;;;;;;;;;6.30;99.90;;;;;;5094054;28;19974;-91
2023/12/16 00:10:09;;;;;;;;;;;7.10;99.90;;;;;;5074413;28;19929;-92
2023/12/16 00:12:35;;;;;;;;;;;6.60;99.90;;;;;;5059157;28;20379;-92
2023/12/16 00:15:00;;;;;;;;;;;6.30;99.90;;;;;;5068955;28;19920;-92
2023/12/16 00:17:26;;;;;;;;;;;6.50;99.90;;;;;;5076979;28;19920;-92
2023/12/16 00:19:51;;;;;;;;;;;6.50;99.90;;;;;;5057057;28;19920;-92
2023/12/16 00:22:17;;;;;;;;;;;6.30;99.90;;;;;;5041141;28;20516;-91
2023/12/16 00:24:43;;;;;;;;;;;6.30;99.90;;;;;;5060498;28;19938;-92
2023/12/16 00:27:08;;;;;;;;;;;6.60;99.90;;;;;;5060635;28;20010;-92
2023/12/16 00:29:34;;;;;;;;;;;6.30;99.90;;;;;;5076793;28;20011;-90
2023/12/16 00:32:01;;;;;;;;;;;6.20;99.90;;;;;;5061708;28;19920;-92
2023/12/16 00:34:27;;;;;;;;;;;6.10;99.90;;;;;;5093394;28;20009;-92
2023/12/16 00:36:54;;;;;;;;;;;6.10;99.90;;;;;;5077023;28;20011;-93
2023/12/16 00:39:20;;;;;;;;;;;6.00;99.90;;;;;;5043243;28;19920;-92
2023/12/16 00:41:45;;;;;;;;;;;6.00;99.90;;;;;;5093614;28;19942;-91
2023/12/16 00:44:11;;;;;;;;;;;5.90;99.90;;;;;;5055680;28;19928;-91
2023/12/16 00:46:37;;;;;;;;;;;5.90;99.90;;;;;;5071203;28;19920;-92
2023/12/16 00:49:02;;;;;;;;;;;5.80;99.90;;;;;;5075807;28;20510;-92
2023/12/16 00:51:28;;;;;;;;;;;5.80;99.90;;;;;;5069199;28;19927;-92
2023/12/16 00:53:53;;;;;;;;;;;5.80;99.90;;;;;;5075554;28;19924;-91
2023/12/16 00:56:19;;;;;;;;;;;6.20;99.90;;;;;;5068565;28;20004;-92
2023/12/16 00:58:45;;;;;;;;;;;5.70;99.90;;;;;;5071204;28;19921;-91
2023/12/16 01:01:13;;;;;;;;;;;5.70;99.90;;;;;;5072670;28;19927;-90
2023/12/16 01:03:40;;;;;;;;;;;5.60;99.90;;;;;;5094260;28;19927;-91
2023/12/16 01:06:06;;;;;;;;;;;5.60;99.90;;;;;;5070050;28;20000;-91
2023/12/16 01:08:32;;;;;;;;;;;5.60;99.90;;;;;;5089045;28;19967;-92
2023/12/16 01:10:58;;;;;;;;;;;5.60;99.90;;;;;;5037025;28;20271;-92
2023/12/16 01:13:24;;;;;;;;;;;5.60;99.90;;;;;;5055929;28;20421;-92
2023/12/16 01:15:49;;;;;;;;;;;5.60;99.90;;;;;;5086925;28;19932;-92
2023/12/16 01:18:16;;;;;;;;;;;5.60;99.90;;;;;;5045528;28;19921;-92
2023/12/16 01:20:41;;;;;;;;;;;5.50;99.90;;;;;;5058082;28;19964;-91
2023/12/16 01:23:07;;;;;;;;;;;5.50;99.90;;;;;;5066006;28;20276;-92
2023/12/16 01:25:33;;;;;;;;;;;5.60;99.90;;;;;;5057052;28;19921;-92
2023/12/16 01:27:58;;;;;;;;;;;6.10;99.90;;;;;;5089152;28;19920;-92
2023/12/16 01:30:24;;;;;;;;;;;5.60;99.90;;;;;;5091012;28;19920;-92
2023/12/16 01:32:51;;;;;;;;;;;5.60;99.90;;;;;;5088461;28;19993;-92
2023/12/16 01:35:17;;;;;;;;;;;5.60;99.90;;;;;;5071780;28;19931;-92
2023/12/16 01:37:42;;;;;;;;;;;5.90;99.90;;;;;;5073858;28;19921;-92
2023/12/16 01:40:08;;;;;;;;;;;5.50;99.90;;;;;;5050966;28;19927;-91
2023/12/16 01:42:34;;;;;;;;;;;5.50;99.90;;;;;;5088329;28;20011;-92
2023/12/16 01:45:00;;;;;;;;;;;5.50;99.90;;;;;;5080162;28;19928;-91
2023/12/16 01:47:26;;;;;;;;;;;5.50;99.90;;;;;;5071881;28;19924;-92
2023/12/16 01:49:52;;;;;;;;;;;5.70;99.90;;;;;;5087516;28;19920;-92
2023/12/16 01:52:17;;;;;;;;;;;5.60;99.90;;;;;;5089004;28;19927;-92
2023/12/16 01:54:44;;;;;;;;;;;5.50;99.90;;;;;;5075439;28;19928;-90
2023/12/16 01:57:10;;;;;;;;;;;5.50;99.90;;;;;;5038689;28;20337;-92
2023/12/16 01:59:35;;;;;;;;;;;5.50;99.90;;;;;;5071882;28;19924;-93
2023/12/16 02:02:01;;;;;;;;;;;6.00;99.90;;;;;;5072100;28;19977;-92
2023/12/16 02:04:27;;;;;;;;;;;5.50;99.90;;;;;;5053712;28;19920;-91
2023/12/16 02:06:53;;;;;;;;;;;5.40;99.90;;;;;;5077716;28;19927;-92
2023/12/16 02:09:19;;;;;;;;;;;5.50;99.90;;;;;;5085009;28;19921;-92
2023/12/16 02:11:45;;;;;;;;;;;5.40;99.90;;;;;;5072092;28;19920;-92
2023/12/16 02:14:11;;;;;;;;;;;5.40;99.90;;;;;;5037897;28;20504;-92
2023/12/16 02:16:37;;;;;;;;;;;5.50;99.90;;;;;;5071227;28;19921;-92
2023/12/16 02:19:08;;;;;;;;;;;5.50;99.90;;;;;;5072400;28;19921;-92
2023/12/16 02:21:33;;;;;;;;;;;5.40;99.90;;;;;;5086666;28;20879;-92
2023/12/16 02:23:59;;;;;;;;;;;5.40;99.90;;;;;;5070337;28;19924;-91
2023/12/16 02:26:25;;;;;;;;;;;5.80;99.90;;;;;;5068178;28;19970;-92
2023/12/16 02:28:50;;;;;;;;;;;5.40;99.90;;;;;;5071658;28;20295;-93
2023/12/16 02:31:16;;;;;;;;;;;5.80;99.90;;;;;;5062060;28;19921;-92
2023/12/16 02:33:41;;;;;;;;;;;5.40;99.90;;;;;;5061931;28;20033;-91
2023/12/16 02:36:07;;;;;;;;;;;5.40;99.90;;;;;;5070539;28;19924;-93
2023/12/16 02:38:33;;;;;;;;;;;5.40;99.90;;;;;;5057525;28;19964;-92
2023/12/16 02:40:59;;;;;;;;;;;5.40;99.90;;;;;;5069382;28;19928;-93
2023/12/16 02:43:24;;;;;;;;;;;5.40;99.90;;;;;;5064147;28;19924;-92
2023/12/16 02:45:50;;;;;;;;;;;5.30;99.90;;;;;;5062809;28;19999;-91
2023/12/16 02:48:15;;;;;;;;;;;5.30;99.90;;;;;;5071854;28;19950;-92
2023/12/16 02:50:41;;;;;;;;;;;5.60;99.90;;;;;;5079964;28;19942;-91
2023/12/16 02:53:07;;;;;;;;;;;5.30;99.90;;;;;;5086179;28;19932;-92
2023/12/16 02:55:33;;;;;;;;;;;5.20;99.90;;;;;;5063633;28;19928;-92
2023/12/16 02:57:58;;;;;;;;;;;5.30;99.90;;;;;;5034094;28;20392;-92
2023/12/16 03:00:24;;;;;;;;;;;5.70;99.90;;;;;;5067756;28;19920;-92
2023/12/16 03:02:49;;;;;;;;;;;5.40;99.90;;;;;;5038051;28;19924;-92
2023/12/16 03:05:15;;;;;;;;;;;5.20;99.90;;;;;;5094843;28;19943;-92
2023/12/16 03:07:40;;;;;;;;;;;5.10;99.90;;;;;;5069257;28;19999;-91
2023/12/16 03:10:06;;;;;;;;;;;5.10;99.90;;;;;;5085566;28;19921;-92
2023/12/16 03:12:32;;;;;;;;;;;5.10;99.90;;;;;;5074515;28;19924;-92
2023/12/16 03:14:58;;;;;;;;;;;5.10;99.90;;;;;;5086243;28;20441;-91
2023/12/16 03:17:23;;;;;;;;;;;5.30;99.90;;;;;;5086010;28;19924;-91
2023/12/16 03:19:49;;;;;;;;;;;5.00;99.90;;;;;;5071535;28;19921;-92
2023/12/16 03:22:15;;;;;;;;;;;5.00;99.90;;;;;;5069636;28;20007;-91
2023/12/16 03:24:40;;;;;;;;;;;5.00;99.90;;;;;;5088749;28;19925;-91
2023/12/16 03:27:06;;;;;;;;;;;5.00;99.90;;;;;;5067936;28;19927;-91
2023/12/16 03:29:31;;;;;;;;;;;5.00;99.90;;;;;;5086881;28;19921;-92
2023/12/16 03:31:57;;;;;;;;;;;5.00;99.90;;;;;;5038920;28;19973;-91
2023/12/16 03:34:23;;;;;;;;;;;4.80;99.90;;;;;;5068533;28;19921;-91
2023/12/16 03:36:48;;;;;;;;;;;4.90;99.90;;;;;;5047927;28;20359;-91
2023/12/16 03:39:14;;;;;;;;;;;5.20;99.90;;;;;;5070065;28;19927;-92
2023/12/16 03:41:40;;;;;;;;;;;4.90;99.90;;;;;;5037026;28;19963;-90
2023/12/16 03:44:05;;;;;;;;;;;5.10;99.90;;;;;;5067802;28;19925;-91
2023/12/16 03:46:31;;;;;;;;;;;5.00;99.90;;;;;;5061132;28;19924;-92
2023/12/16 03:48:56;;;;;;;;;;;5.90;99.90;;;;;;5091188;28;19920;-91
2023/12/16 03:51:23;;;;;;;;;;;6.20;99.90;;;;;;5087601;28;20273;-91
2023/12/16 03:53:48;;;;;;;;;;;4.80;99.90;;;;;;5071409;28;20441;-91
2023/12/16 03:56:15;;;;;;;;;;;5.00;99.90;;;;;;5056654;28;19924;-92
2023/12/16 03:58:40;;;;;;;;;;;5.70;99.90;;;;;;5078835;28;19928;-91
2023/12/16 04:01:13;;;;;;;;;;;5.00;99.90;;;;;;5049754;28;19920;-92
2023/12/16 04:03:41;;;;;;;;;;;4.90;99.90;;;;;;5074488;28;20011;-90
2023/12/16 04:06:13;;;;;;;;;;;5.00;99.90;;;;;;5077206;28;19983;-92
2023/12/16 04:08:40;;;;;;;;;;;4.90;99.90;;;;;;5073081;28;19924;-91
2023/12/16 04:11:06;;;;;;;;;;;4.60;99.90;;;;;;5066218;28;19920;-92
2023/12/16 04:13:32;;;;;;;;;;;5.00;99.90;;;;;;5079532;28;19928;-92
2023/12/16 04:15:57;;;;;;;;;;;5.00;99.90;;;;;;5056296;28;19928;-92
2023/12/16 04:18:23;;;;;;;;;;;4.90;99.90;;;;;;5074074;28;19950;-90
2023/12/16 04:20:49;;;;;;;;;;;5.00;99.90;;;;;;5076100;28;19963;-92
2023/12/16 04:23:14;;;;;;;;;;;5.00;99.90;;;;;;5072471;28;20545;-92
2023/12/16 04:25:40;;;;;;;;;;;5.00;99.90;;;;;;5039287;28;20403;-92
2023/12/16 04:28:06;;;;;;;;;;;4.90;99.90;;;;;;5073766;28;20058;-91
2023/12/16 04:30:32;;;;;;;;;;;5.00;99.90;;;;;;5072894;28;19967;-92
2023/12/16 04:32:58;;;;;;;;;;;5.00;99.90;;;;;;5099317;28;19920;-91
2023/12/16 04:35:23;;;;;;;;;;;5.10;99.90;;;;;;5073526;28;19925;-92
2023/12/16 04:37:49;;;;;;;;;;;5.20;99.90;;;;;;5076781;28;20380;-92
2023/12/16 04:40:14;;;;;;;;;;;5.10;99.90;;;;;;5038909;28;19920;-92
2023/12/16 04:42:41;;;;;;;;;;;5.10;99.90;;;;;;5076062;28;20019;-92
2023/12/16 04:45:06;;;;;;;;;;;5.40;99.90;;;;;;5078221;28;19926;-92
2023/12/16 04:47:32;;;;;;;;;;;5.10;99.90;;;;;;5048938;28;20334;-93
2023/12/16 04:49:58;;;;;;;;;;;5.50;99.90;;;;;;5076228;28;19973;-92
2023/12/16 04:52:24;;;;;;;;;;;5.10;99.90;;;;;;5093386;28;20015;-92
2023/12/16 04:54:49;;;;;;;;;;;5.60;99.90;;;;;;5048206;28;20239;-92
2023/12/16 04:57:15;;;;;;;;;;;5.10;99.90;;;;;;5085100;28;20034;-92
2023/12/16 04:59:41;;;;;;;;;;;5.10;99.90;;;;;;5044081;28;19966;-92
2023/12/16 05:02:06;;;;;;;;;;;5.30;99.90;;;;;;5059626;28;19993;-91
2023/12/16 05:04:32;;;;;;;;;;;5.00;99.90;;;;;;5058120;28;19927;-92
2023/12/16 05:06:57;;;;;;;;;;;5.10;99.90;;;;;;5077319;28;19920;-92
2023/12/16 05:09:23;;;;;;;;;;;5.10;99.90;;;;;;5042898;28;19974;-92
2023/12/16 05:11:48;;;;;;;;;;;5.70;99.90;;;;;;5059687;28;20377;-92
2023/12/16 05:14:14;;;;;;;;;;;5.20;99.90;;;;;;5074767;28;19967;-93
2023/12/16 05:16:40;;;;;;;;;;;5.50;99.90;;;;;;5075402;28;20379;-91
2023/12/16 05:21:33;;;;;;;;;;;5.30;99.90;;;;;;5072414;28;20364;-91
2023/12/16 05:23:59;;;;;;;;;;;5.20;99.90;;;;;;5040360;28;19924;-86
2023/12/16 05:26:24;;;;;;;;;;;5.20;99.90;;;;;;5041164;28;19956;-90
2023/12/16 05:28:51;;;;;;;;;;;5.20;99.90;;;;;;5049094;28;20452;-89
2023/12/16 05:31:17;;;;;;;;;;;5.30;99.90;;;;;;5026197;28;19963;-92
2023/12/16 05:33:45;;;;;;;;;;;5.20;99.90;;;;;;5040255;28;19920;-93
2023/12/16 05:36:11;;;;;;;;;;;5.60;99.90;;;;;;5030315;28;20096;-93
2023/12/16 05:38:37;;;;;;;;;;;5.40;99.90;;;;;;5035644;28;19920;-91
2023/12/16 05:41:03;;;;;;;;;;;5.30;99.90;;;;;;5065202;28;19927;-91
2023/12/16 05:43:28;;;;;;;;;;;5.30;99.90;;;;;;5041785;28;19921;-92
2023/12/16 05:45:54;;;;;;;;;;;5.40;99.90;;;;;;5029634;28;20382;-92
2023/12/16 05:48:20;;;;;;;;;;;5.40;99.90;;;;;;5048075;28;19931;-92
2023/12/16 05:50:46;;;;;;;;;;;5.40;99.90;;;;;;5039773;28;19924;-93
2023/12/16 05:53:12;;;;;;;;;;;5.50;99.90;;;;;;5023187;28;19928;-92
2023/12/16 05:55:37;;;;;;;;;;;5.40;99.90;;;;;;5027047;28;19931;-92
2023/12/16 05:58:03;;;;;;;;;;;5.60;99.90;;;;;;5039883;28;19920;-91
2023/12/16 06:00:29;;;;;;;;;;;5.70;99.90;;;;;;5023568;28;19943;-91
2023/12/16 06:02:54;;;;;;;;;;;5.70;99.90;;;;;;5041929;28;19920;-92
2023/12/16 06:05:20;;;;;;;;;;;5.80;99.90;;;;;;5036856;28;19928;-91
2023/12/16 06:07:46;;;;;;;;;;;5.90;99.90;;;;;;5021058;28;20406;-89
2023/12/16 06:10:12;;;;;;;;;;;6.00;99.90;;;;;;5022239;28;19920;-91
2023/12/16 06:12:38;;;;;;;;;;;6.00;99.90;;;;;;5022918;28;19950;-92
2023/12/16 06:15:04;;;;;;;;;;;7.50;99.90;;;;;;5040641;28;19924;-93
2023/12/16 06:17:30;;;;;;;;;;;6.00;99.90;;;;;;5040561;28;19921;-91
2023/12/16 06:19:56;;;;;;;;;;;;;;;;;;5024562;28;19944;-91
2023/12/16 06:22:21;;;;;;;;;;;6.10;99.90;;;;;;5045258;28;19951;-92
2023/12/16 06:24:47;;;;;;;;;;;6.20;99.90;;;;;;5034837;28;19948;-92
2023/12/16 06:27:13;;;;;;;;;;;6.10;99.90;;;;;;5036843;28;19967;-91
2023/12/16 06:29:39;;;;;;;;;;;6.30;99.90;;;;;;5016604;28;19928;-91
2023/12/16 06:32:05;;;;;;;;;;;6.20;99.90;;;;;;5030185;28;19921;-91
2023/12/16 06:34:31;;;;;;;;;;;6.20;99.90;;;;;;5035912;28;20021;-92
2023/12/16 06:36:56;;;;;;;;;;;6.20;99.90;;;;;;5036124;28;19921;-94
2023/12/16 06:39:22;;;;;;;;;;;4.90;99.90;;;;;;5037218;28;20545;-93
2023/12/16 06:41:48;;;;;;;;;;;6.30;99.90;;;;;;5028572;28;19929;-92
2023/12/16 06:44:14;;;;;;;;;;;6.30;99.90;;;;;;5036599;28;19921;-93
2023/12/16 06:46:39;;;;;;;;;;;6.40;99.90;;;;;;5044284;28;19921;-91
2023/12/16 06:49:05;;;;;;;;;;;6.40;99.90;;;;;;5019456;28;20359;-91
2023/12/16 06:51:31;;;;;;;;;;;6.40;99.90;;;;;;5019758;28;19921;-90
2023/12/16 06:53:56;;;;;;;;;;;6.40;99.90;;;;;;5035224;28;19921;-91
2023/12/16 06:56:22;;;;;;;;;;;6.40;99.90;;;;;;5010382;28;19925;-92
2023/12/16 06:58:47;;;;;;;;;;;6.40;99.90;;;;;;5016535;28;19932;-90
2023/12/16 07:01:13;;;;;;;;;;;6.50;99.90;;;;;;5024504;28;19921;-92
2023/12/16 07:03:39;;;;;;;;;;;7.60;99.90;;;;;;5039999;28;19929;-92
2023/12/16 07:06:05;;;;;;;;;;;6.50;99.90;;;;;;5031322;28;19952;-92
2023/12/16 07:08:30;;;;;;;;;;;6.50;99.90;;;;;;5040231;28;20041;-91
2023/12/16 07:10:56;;;;;;;;;;;6.50;99.90;;;;;;5032111;28;19920;-91
2023/12/16 07:13:22;;;;;;;;;;;6.50;99.90;;;;;;5022581;28;19936;-92
2023/12/16 07:15:48;;;;;;;;;;;7.70;99.90;;;;;;5051472;28;20383;-93
2023/12/16 07:18:14;;;;;;;;;;;7.30;99.90;;;;;;5040824;28;20019;-91
2023/12/16 07:20:42;;;;;;;;;;;6.70;99.90;;;;;;5040406;28;20447;-92
2023/12/16 07:23:08;;;;;;;;;;;7.80;99.90;;;;;;5030574;28;19929;-93
2023/12/16 07:25:34;;;;;;;;;;;6.50;99.90;;;;;;5025633;28;19970;-93
2023/12/16 07:27:59;;;;;;;;;;;6.50;99.90;;;;;;5041464;28;19932;-93
2023/12/16 07:30:25;;;;;;;;;;;6.80;99.90;;;;;;5042777;28;19928;-93
2023/12/16 07:32:51;;;;;;;;;;;5.30;99.90;;;;;;5037355;28;19961;-92
2023/12/16 07:35:16;;;;;;;;;;;6.50;99.90;;;;;;5026837;28;19936;-94
2023/12/16 07:37:43;;;;;;;;;;;6.60;99.90;;;;;;5042731;28;19927;-92
2023/12/16 07:40:09;;;;;;;;;;;6.50;99.90;;;;;;5046084;28;19979;-94
2023/12/16 07:42:38;;;;;;;;;;;6.60;99.90;;;;;;5043981;28;20320;-92
2023/12/16 07:45:05;;;;;;;;;;;6.50;99.90;;;;;;5040047;28;20012;-92
2023/12/16 07:47:31;;;;;;;;;;;6.60;99.90;;;;;;5032282;28;19929;-93
2023/12/16 07:49:57;;;;;;;;;;;6.60;99.90;;;;;;5041479;28;19935;-94
2023/12/16 07:52:24;;;;;;;;;;;6.60;99.90;;;;;;5035073;28;19928;-93
2023/12/16 07:54:50;;;;;;;;;;;6.60;99.90;;;;;;5034992;28;19928;-93
2023/12/16 07:57:15;;;;;;;;;;;6.70;99.90;;;;;;5039229;28;20007;-92
2023/12/16 07:59:41;;;;;;;;;;;6.70;99.90;;;;;;5025369;28;19964;-93
2023/12/16 08:02:08;;;;;;;;;;;6.70;99.90;;;;;;5020593;28;20038;-93
2023/12/16 08:04:34;;;;;;;;;;;6.70;99.90;;;;;;5021799;28;19927;-91
2023/12/16 08:07:00;;;;;;;;;;;6.80;99.90;;;;;;5037865;28;20299;-91
2023/12/16 08:09:26;;;;;;;;;;;6.80;99.90;;;;;;5019724;28;19927;-91
2023/12/16 08:11:57;;;;;;;;;;;6.80;99.90;;;;;;5014621;28;19928;-92
2023/12/16 08:14:28;;;;;;;;;;;6.80;99.90;;;;;;5025255;28;20368;-93
2023/12/16 08:16:54;;;;;;;;;;;6.80;99.90;;;;;;5030729;28;20004;-92
2023/12/16 08:19:19;;;;;;;;;;;6.90;99.90;;;;;;5014191;28;19936;-93
2023/12/16 08:21:45;;;;;;;;;;;6.90;99.90;;;;;;5035667;28;20335;-91
2023/12/16 08:24:11;;;;;;;;;;;6.90;99.90;;;;;;5043575;28;20298;-90
2023/12/16 08:26:36;;;;;;;;;;;6.90;99.90;;;;;;5023225;28;19925;-92
2023/12/16 08:29:02;;;;;;;;;;;7.00;99.90;;;;;;5026210;28;19920;-92
2023/12/16 08:31:28;;;;;;;;;;;7.00;99.90;;;;;;5042302;28;19978;-92
2023/12/16 08:33:54;;;;;;;;;;;7.00;99.90;;;;;;5040158;28;20607;-91
2023/12/16 08:36:19;;;;;;;;;;;7.10;99.90;;;;;;5043025;28;19924;-90
2023/12/16 08:38:45;;;;;;;;;;;;;;;;;;5042921;28;20410;-92
2023/12/16 08:41:12;;;;;;;;;;;7.10;99.90;;;;;;5044137;28;19909;-90
2023/12/16 08:43:38;;;;;;;;;;;7.10;99.90;;;;;;5039545;28;19924;-93
2023/12/16 08:46:04;;;;;;;;;;;7.10;99.90;;;;;;5023775;28;20671;-93
2023/12/16 08:48:29;;;;;;;;;;;5.80;99.90;;;;;;5039369;28;19921;-94
2023/12/16 08:50:58;;;;;;;;;;;7.10;99.90;;;;;;5036662;28;20372;-94
2023/12/16 08:53:24;;;;;;;;;;;7.10;99.90;;;;;;5034474;28;19928;-92
2023/12/16 08:55:50;;;;;;;;;;;7.10;99.90;;;;;;5040130;28;20375;-92
2023/12/16 08:58:16;;;;;;;;;;;7.10;99.90;;;;;;5039135;28;19932;-95
2023/12/16 09:00:41;;;;;;;;;;;7.10;99.90;;;;;;5040274;28;19925;-96
2023/12/16 09:03:07;;;;;;;;;;;7.00;99.90;;;;;;5025185;28;20441;-96
2023/12/16 09:05:34;;;;;;;;;;;7.10;99.90;;;;;;5025612;28;19970;-96
2023/12/16 09:08:00;;;;;;;;;;;7.10;99.90;;;;;;5041387;28;20319;-96
2023/12/16 09:10:29;;;;;;;;;;;8.80;99.90;;;;;;5065047;28;19965;-95
2023/12/16 09:12:54;;;;;;;;;;;7.10;99.90;;;;;;5045806;28;19920;-96
2023/12/16 09:15:20;;;;;;;;;;;7.10;99.90;;;;;;5029305;28;19924;-91
2023/12/16 09:17:47;;;;;;;;;;;7.10;99.90;;;;;;5024948;28;19928;-94
2023/12/16 09:20:15;;;;;;;;;;;7.10;99.90;;;;;;5032787;28;19921;-93
2023/12/16 09:22:41;;;;;;;;;;;7.10;99.90;;;;;;5019990;28;19978;-94
2023/12/16 09:25:08;;;;;;;;;;;7.20;99.90;;;;;;5019042;28;20047;-95
2023/12/16 09:27:34;;;;;;;;;;;7.20;99.90;;;;;;5022175;28;19925;-96
2023/12/16 09:30:00;;;;;;;;;;;7.20;99.90;;;;;;5021143;28;20416;-94
2023/12/16 09:32:25;;;;;;;;;;;7.20;99.90;;;;;;5021875;28;19928;-93
2023/12/16 09:34:51;;;;;;;;;;;7.20;99.90;;;;;;5018358;28;19924;-90
2023/12/16 09:37:16;;;;;;;;;;;7.20;99.90;;;;;;5017927;28;19940;-90
2023/12/16 09:39:42;;;;;;;;;;;7.30;99.90;;;;;;5039393;28;19927;-92
2023/12/16 09:42:10;;;;;;;;;;;7.30;99.90;;;;;;5034205;28;19929;-94
2023/12/16 09:44:36;;;;;;;;;;;7.30;99.90;;;;;;5027074;28;19928;-92
2023/12/16 09:47:05;;;;;;;;;;;7.30;99.90;;;;;;5035378;28;19921;-91
2023/12/16 09:49:31;;;;;;;;;;;7.30;99.90;;;;;;5011890;28;19965;-93
2023/12/16 09:51:57;;;;;;;;;;;7.40;99.90;;;;;;5035299;28;19931;-93
2023/12/16 09:54:22;;;;;;;;;;;7.90;99.90;;;;;;5016643;28;19989;-94
2023/12/16 09:56:48;;;;;;;;;;;7.40;99.90;;;;;;5039592;28;19999;-90
2023/12/16 09:59:18;;;;;;;;;;;7.50;99.90;;;;;;5035232;28;19974;-90
2023/12/16 10:01:52;;;;;;;;;;;7.60;99.90;;;;;;5036385;28;20278;-91
2023/12/16 10:04:18;;;;;;;;;;;;;;;;;;5027785;28;19960;-94
2023/12/16 10:06:44;;;;;;;;;;;7.40;99.90;;;;;;5057144;28;19931;-94
2023/12/16 10:09:10;;;;;;;;;;;7.50;99.90;;;;;;5041806;28;20106;-96
2023/12/16 10:11:42;;;;;;;;;;;7.40;99.90;;;;;;5030820;28;19982;-92
2023/12/16 10:14:08;;;;;;;;;;;7.00;99.90;;;;;;5037621;28;19924;-95
2023/12/16 10:16:33;;;;;;;;;;;7.50;99.90;;;;;;5033821;28;19963;-93
2023/12/16 10:18:59;;;;;;;;;;;7.50;99.90;;;;;;5029767;28;19925;-93
2023/12/16 10:21:34;;;;;;;;;;;7.50;99.90;;;;;;5037102;28;19912;-92
2023/12/16 10:24:00;;;;;;;;;;;7.50;99.90;;;;;;5019989;28;19936;-93
2023/12/16 10:26:29;;;;;;;;;;;7.60;99.90;;;;;;5035268;28;20011;-95
2023/12/16 10:28:54;;;;;;;;;;;7.60;99.90;;;;;;5032591;28;19980;-92
2023/12/16 10:31:21;;;;;;;;;;;7.60;99.90;;;;;;5012403;28;20008;-90
2023/12/16 10:33:47;;;;;;;;;;;7.60;99.90;;;;;;5031536;28;19981;-90
2023/12/16 10:36:14;;;;;;;;;;;7.60;99.90;;;;;;5019103;28;20597;-94
2023/12/16 10:38:40;;;;;;;;;;;6.60;99.90;;;;;;5037974;28;20253;-92
2023/12/16 10:41:09;;;;;;;;;;;7.60;99.90;;;;;;5016865;28;20402;-96
2023/12/16 10:43:35;;;;;;;;;;;7.60;99.90;;;;;;5032933;28;20825;-96
2023/12/16 10:46:03;;;;;;;;;;;7.60;99.90;;;;;;5030740;28;19931;-96
2023/12/16 10:48:31;;;;;;;;;;;7.60;99.90;;;;;;5034433;28;19982;-95
2023/12/16 10:50:59;;;;;;;;;;;7.70;99.90;;;;;;5034387;28;19931;-95
2023/12/16 10:53:26;;;;;;;;;;;7.70;99.90;;;;;;5033165;28;19928;-93
2023/12/16 10:55:54;;;;;;;;;;;7.60;99.90;;;;;;5029348;28;19986;-95
2023/12/16 10:58:23;;;;;;;;;;;7.70;99.90;;;;;;5037299;28;19921;-95
2023/12/16 11:00:51;;;;;;;;;;;7.80;99.90;;;;;;5025133;28;19921;-96
2023/12/16 11:03:20;;;;;;;;;;;7.80;99.90;;;;;;5034631;28;20283;-95
2023/12/16 11:05:52;;;;;;;;;;;7.80;99.90;;;;;;5038703;28;19924;-94
2023/12/16 11:08:19;;;;;;;;;;;7.80;99.90;;;;;;5035089;28;19978;-92
2023/12/16 11:10:45;;;;;;;;;;;7.80;99.90;;;;;;5031508;28;19921;-94
2023/12/16 11:13:10;;;;;;;;;;;7.80;99.90;;;;;;5016117;28;19931;-94
2023/12/16 11:15:36;;;;;;;;;;;7.90;99.90;;;;;;5028969;28;20677;-94
2023/12/16 11:18:17;;;;;;;;;;;7.90;99.90;;;;;;5017515;28;19921;-94
2023/12/16 11:20:49;;;;;;;;;;;7.90;99.90;;;;;;5032104;28;19928;-94
2023/12/16 11:23:18;;;;;;;;;;;8.00;99.90;;;;;;5021184;28;20377;-93
2023/12/16 11:25:45;;;;;;;;;;;8.00;99.90;;;;;;5016699;28;20336;-95
2023/12/16 11:28:13;;;;;;;;;;;8.10;99.90;;;;;;5034162;28;20655;-95
2023/12/16 11:30:39;;;;;;;;;;;8.10;99.90;;;;;;5035246;28;19936;-91
2023/12/16 11:33:05;;;;;;;;;;;8.10;99.90;;;;;;5050929;28;19921;-90
2023/12/16 11:35:42;;;;;;;;;;;8.10;99.90;;;;;;5030506;28;20000;-90
2023/12/16 11:38:08;;;;;;;;;;;8.20;99.90;;;;;;5033054;28;19920;-90
2023/12/16 11:40:41;;;;;;;;;;;8.20;99.90;;;;;;5029136;28;19925;-89
2023/12/16 11:43:07;;;;;;;;;;;8.10;99.90;;;;;;5042380;28;20490;-91
2023/12/16 11:45:43;;;;;;;;;;;8.30;99.90;;;;;;5018332;28;20010;-91
2023/12/16 11:48:09;;;;;;;;;;;9.00;99.90;;;;;;5033648;28;19952;-89
2023/12/16 11:50:45;;;;;;;;;;;8.70;99.90;;;;;;5035240;28;19925;-90
2023/12/16 11:53:12;;;;;;;;;;;8.40;99.90;;;;;;5037503;28;19924;-91
2023/12/16 11:55:38;;;;;;;;;;;8.30;99.90;;;;;;5029864;28;19983;-90
2023/12/16 11:58:04;;;;;;;;;;;8.40;99.90;;;;;;5037276;28;19920;-91
2023/12/16 12:00:30;;;;;;;;;;;8.30;99.90;;;;;;5036322;28;19986;-89
2023/12/16 12:02:56;;;;;;;;;;;8.40;99.90;;;;;;5019393;28;19933;-89
2023/12/16 12:05:22;;;;;;;;;;;8.40;99.90;;;;;;5052967;28;19924;-92
2023/12/16 12:07:48;;;;;;;;;;;8.40;99.90;;;;;;5036778;28;19924;-91
2023/12/16 12:10:13;;;;;;;;;;;8.40;99.90;;;;;;5035952;28;20288;-91
2023/12/16 12:12:39;;;;;;;;;;;8.40;99.90;;;;;;5051909;28;20327;-92
2023/12/16 12:15:06;;;;;;;;;;;8.40;99.90;;;;;;5033713;28;19928;-94
2023/12/16 12:17:32;;;;;;;;;;;8.40;99.90;;;;;;5019699;28;19928;-92
2023/12/16 12:19:57;;;;;;;;;;;8.40;99.90;;;;;;5019156;28;19925;-90
2023/12/16 12:22:23;;;;;;;;;;;8.50;99.90;;;;;;5018826;28;19925;-92
2023/12/16 12:24:50;;;;;;;;;;;8.50;99.90;;;;;;5033040;28;19921;-92
2023/12/16 12:27:16;;;;;;;;;;;8.50;99.90;;;;;;5014130;28;20004;-92
2023/12/16 12:30:01;;;;;;;;;;;8.50;99.90;;;;;;5051964;28;20321;-93
2023/12/16 12:32:28;;;;;;;;;;;8.50;99.90;;;;;;5030101;28;20007;-88
2023/12/16 12:34:58;;;;;;;;;;;8.50;99.90;;;;;;5031379;28;19999;-88
2023/12/16 12:37:23;;;;;;;;;;;8.50;99.90;;;;;;5028411;28;19925;-87
2023/12/16 12:39:50;;;;;;;;;;;8.60;99.90;;;;;;5011994;28;19921;-87
2023/12/16 12:42:16;;;;;;;;;;;8.60;99.90;;;;;;5026882;28;20520;-92
2023/12/16 12:44:50;;;;;;;;;;;8.50;99.90;;;;;;5017645;28;19979;-93
2023/12/16 12:47:26;;;;;;;;;;;8.50;99.90;;;;;;5041049;28;19920;-91
2023/12/16 12:49:51;;;;;;;;;;;8.60;99.90;;;;;;5031995;28;19928;-91
2023/12/16 12:52:17;;;;;;;;;;;8.60;99.90;;;;;;5030299;28;19935;-89
2023/12/16 12:54:43;;;;;;;;;;;8.50;99.90;;;;;;5016028;28;19960;-90
2023/12/16 12:57:16;;;;;;;;;;;8.60;99.90;;;;;;5012659;28;19921;-88
2023/12/16 12:59:41;;;;;;;;;;;8.60;99.90;;;;;;5023422;28;20650;-87
2023/12/16 13:02:07;;;;;;;;;;;8.60;99.90;;;;;;5011938;28;20020;-87
2023/12/16 13:04:33;;;;;;;;;;;8.60;99.90;;;;;;5027803;28;19920;-89
2023/12/16 13:06:59;;;;;;;;;;;;;;;;;;5046651;28;20364;-86
2023/12/16 13:09:24;;;;;;;;;;;8.60;99.90;;;;;;5026616;28;19921;-87
2023/12/16 13:11:50;;;;;;;;;;;8.60;99.90;;;;;;5014571;28;20531;-89
2023/12/16 13:14:16;;;;;;;;;;;8.60;99.90;;;;;;5030550;28;20413;-87
2023/12/16 13:16:41;;;;;;;;;;;8.60;99.90;;;;;;5029518;28;19924;-88
2023/12/16 13:19:07;;;;;;;;;;;8.60;99.90;;;;;;5038324;28;19958;-87
2023/12/16 13:21:32;;;;;;;;;;;8.60;99.90;;;;;;5025087;28;19925;-87
2023/12/16 13:23:58;;;;;;;;;;;8.60;99.90;;;;;;5035223;28;19939;-92
2023/12/16 13:26:24;;;;;;;;;;;8.60;99.90;;;;;;5018414;28;19924;-89
2023/12/16 13:28:49;;;;;;;;;;;8.70;99.90;;;;;;5027520;28;19942;-90
2023/12/16 13:31:15;;;;;;;;;;;8.60;99.90;;;;;;5029530;28;20316;-87
2023/12/16 13:33:41;;;;;;;;;;;8.70;99.90;;;;;;5016129;28;19924;-88
2023/12/16 13:36:09;;;;;;;;;;;9.20;99.90;;;;;;5030967;28;19924;-85
2023/12/16 13:38:34;;;;;;;;;;;8.70;99.90;;;;;;5032832;28;20007;-90
2023/12/16 13:41:00;;;;;;;;;;;8.60;99.90;;;;;;5031977;28;20043;-87
2023/12/16 13:43:25;;;;;;;;;;;8.60;99.90;;;;;;5018912;28;20299;-88
2023/12/16 13:45:51;;;;;;;;;;;8.60;99.90;;;;;;5023268;28;19921;-89
2023/12/16 13:48:17;;;;;;;;;;;8.70;99.90;;;;;;5021433;28;20008;-90
2023/12/16 13:50:42;;;;;;;;;;;8.70;99.90;;;;;;5039502;28;19928;-89
2023/12/16 13:53:08;;;;;;;;;;;7.90;99.90;;;;;;5038424;28;20540;-88
2023/12/16 13:55:34;;;;;;;;;;;8.60;99.90;;;;;;5036291;28;19956;-90
2023/12/16 13:57:59;;;;;;;;;;;8.70;99.90;;;;;;5022369;28;19924;-87
2023/12/16 14:00:25;;;;;;;;;;;8.70;99.90;;;;;;5027482;28;19920;-89
2023/12/16 14:02:50;;;;;;;;;;;8.70;99.90;;;;;;5034670;28;19978;-89
2023/12/16 14:05:16;;;;;;;;;;;8.60;99.90;;;;;;5020303;28;20008;-90
2023/12/16 14:07:42;;;;;;;;;;;8.70;99.90;;;;;;5020665;28;19920;-88
2023/12/16 14:10:08;;;;;;;;;;;8.70;99.90;;;;;;5020266;28;19981;-91
2023/12/16 14:12:34;;;;;;;;;;;8.70;99.90;;;;;;5018908;28;20761;-93
2023/12/16 14:14:59;;;;;;;;;;;8.70;99.90;;;;;;5018348;28;19920;-88
2023/12/16 14:17:25;;;;;;;;;;;8.70;99.90;;;;;;5022533;28;19963;-88
2023/12/16 14:19:51;;;;;;;;;;;8.70;99.90;;;;;;5021172;28;19930;-94
2023/12/16 14:22:34;;;;;;;;;;;8.70;99.90;;;;;;5027938;28;19978;-93
2023/12/16 14:25:00;;;;;;;;;;;8.60;99.90;;;;;;5032209;28;19928;-94
2023/12/16 14:27:26;;;;;;;;;;;8.60;99.90;;;;;;5037870;28;20287;-85